Terminal Aerodrome Forecast
Issued by NWS Riverton, WY

Home | Current Version | Previous Version | Text Only | Print | Product List | Glossary On
Versions: 1 2 3 4 5 6 7 8 9 10 11 12 13 14
000
FTUS45 KRIW 271722
TAFRIW
TAF
KRIW 271722Z 2718/2818 24018G28KT P6SM VCSH SCT090 BKN130
     FM271900 29020G30KT P6SM VCTS SCT080CB BKN120
     FM280200 36014G22KT P6SM SCT100 SCT140
     FM280600 VRB06KT P6SM SCT110
     FM281600 28010KT P6SM FEW100=

USA.gov is the U.S. government's official web portal to all federal, state and local government web resources and services.